KTPF/TPF METAR and TAF weather

Enter ICAO airport designator
Station Type Date Time Source
KTPF METAR 2019/10/22 16:35 UTC NOAA

KTPF 221635Z AUTO 22011G18KT 10SM OVC100 30/26 A3000 RMK AO2


Station Type Date Time Source
KTPF Decoded METAR 2019/10/22 16:35 UTC NOAA

Tampa, Peter O Knight Airport, FL, United States (KTPF) 27-54-56N 082-26-57W
Oct 22, 2019 - 12:35 PM EDT / 2019.10.22 1635 UTC
Wind: from the SW (220 degrees) at 13 MPH (11 KT) gusting to 21 MPH (18 KT):0
Visibility: 10 mile(s):0
Sky conditions: overcast
Temperature: 86 F (30 C)
Heat index: 99.3 F (37.4 C):1
Dew Point: 78 F (26 C)
Relative Humidity: 79%
Pressure (altimeter): 30 in. Hg (1015 hPa)
ob: KTPF 221635Z AUTO 22011G18KT 10SM OVC100 30/26 A3000 RMK AO2
cycle: 16

Station Type Date Time Source
KTPF TAF UTC NOAA

Error!

Example: see airport list